createdAt,value
2018-06-14T04:00:18.804Z,5.60
2018-06-14T04:02:45.850Z,4.57
2018-06-14T04:05:13.195Z,4.67
2018-06-14T04:07:40.185Z,5.50
2018-06-14T04:10:07.244Z,5.10
2018-06-14T04:12:34.217Z,5.73
2018-06-14T04:15:01.321Z,5.70
2018-06-14T04:17:28.343Z,5.30
2018-06-14T04:19:55.365Z,5.53
2018-06-14T04:22:22.360Z,5.50
2018-06-14T04:24:49.403Z,5.50
2018-06-14T04:27:16.496Z,5.13
2018-06-14T04:29:43.850Z,5.20
2018-06-14T04:32:10.923Z,5.10
2018-06-14T04:34:38.461Z,5.67
2018-06-14T04:37:05.509Z,6.17
2018-06-14T04:39:32.508Z,5.37
2018-06-14T04:41:59.512Z,5.67
2018-06-14T04:44:26.512Z,5.30
2018-06-14T04:46:53.522Z,5.83
2018-06-14T04:49:20.557Z,5.00
2018-06-14T04:51:47.567Z,5.40
2018-06-14T04:54:14.548Z,5.40
2018-06-14T04:56:41.992Z,5.73
2018-06-14T04:59:09.029Z,5.30
2018-06-14T05:01:36.041Z,5.80
2018-06-14T05:04:03.062Z,5.53
2018-06-14T05:06:30.161Z,5.20
2018-06-14T05:08:57.148Z,5.17
2018-06-14T05:11:24.164Z,5.10
2018-06-14T05:13:51.187Z,4.73
2018-06-14T05:16:18.152Z,5.63
2018-06-14T05:18:45.169Z,4.53
2018-06-14T05:21:12.167Z,4.70
2018-06-14T05:23:39.161Z,5.30
2018-06-14T05:26:06.161Z,5.50
2018-06-14T05:28:33.181Z,4.97
2018-06-14T05:31:00.189Z,4.60
2018-06-14T05:33:27.204Z,5.47
2018-06-14T05:35:54.188Z,5.10
2018-06-14T05:38:21.183Z,5.90
2018-06-14T05:40:48.168Z,5.33
2018-06-14T05:43:15.786Z,5.20
2018-06-14T05:45:55.473Z,6.00
2018-06-14T05:48:22.477Z,5.57
2018-06-14T05:50:53.643Z,5.10
2018-06-14T05:53:21.349Z,5.17
2018-06-14T05:55:53.282Z,5.07
2018-06-14T05:58:24.604Z,5.93
2018-06-14T06:00:54.393Z,5.60
2018-06-14T06:03:24.805Z,5.53
2018-06-14T06:05:51.803Z,5.70
2018-06-14T06:08:18.823Z,5.53
2018-06-14T06:10:45.833Z,5.23
2018-06-14T06:13:12.876Z,5.03
2018-06-14T06:15:39.954Z,5.30
2018-06-14T06:18:06.981Z,5.53
2018-06-14T06:20:34.002Z,5.10
2018-06-14T06:23:00.992Z,5.47
2018-06-14T06:25:28.009Z,5.33
2018-06-14T06:27:55.057Z,5.13
2018-06-14T06:30:22.110Z,6.20
2018-06-14T06:32:49.108Z,5.10
2018-06-14T06:35:16.141Z,5.30
2018-06-14T06:37:43.163Z,6.17
2018-06-14T06:40:10.153Z,4.83
2018-06-14T06:42:37.136Z,5.80
2018-06-14T06:45:05.605Z,5.80
2018-06-14T06:47:32.544Z,6.03
2018-06-14T06:49:59.510Z,5.40
2018-06-14T06:52:26.496Z,5.23
2018-06-14T06:54:53.496Z,5.90
2018-06-14T06:57:20.502Z,5.17
2018-06-14T06:59:47.490Z,4.93
2018-06-14T07:02:14.655Z,5.13
2018-06-14T07:04:41.641Z,5.37
2018-06-14T07:07:08.644Z,5.73
2018-06-14T07:09:35.639Z,5.97
2018-06-14T07:12:02.801Z,5.50
2018-06-14T07:14:29.789Z,5.50
2018-06-14T07:16:56.847Z,5.47
2018-06-14T07:19:23.885Z,5.40
2018-06-14T07:21:50.978Z,4.70
2018-06-14T07:24:17.909Z,4.77
2018-06-14T07:26:44.900Z,5.30
2018-06-14T07:29:11.880Z,5.20
2018-06-14T07:31:38.859Z,4.37
2018-06-14T07:34:05.857Z,4.30
2018-06-14T07:36:32.857Z,4.30
2018-06-14T07:38:59.869Z,4.10
2018-06-14T07:41:26.856Z,3.57
2018-06-14T07:43:53.860Z,3.80
2018-06-14T07:46:20.844Z,4.20
2018-06-14T07:48:47.846Z,5.23
2018-06-14T07:51:14.848Z,3.37
2018-06-14T07:53:41.849Z,4.23
2018-06-14T07:56:08.845Z,4.77
2018-06-14T07:58:35.921Z,4.10
2018-06-14T08:01:02.923Z,4.03
2018-06-14T08:03:29.934Z,2.87
2018-06-14T08:05:56.916Z,2.97
2018-06-14T08:08:23.909Z,3.33
2018-06-14T08:10:50.973Z,3.23
2018-06-14T08:13:17.965Z,3.20
2018-06-14T08:15:44.972Z,3.27
2018-06-14T08:18:11.965Z,3.43
2018-06-14T08:20:38.969Z,3.50
2018-06-14T08:23:05.953Z,2.90
2018-06-14T08:25:32.996Z,2.70
2018-06-14T08:27:59.996Z,2.57
2018-06-14T08:30:26.993Z,2.70
2018-06-14T08:32:54.031Z,3.07
2018-06-14T08:35:21.033Z,3.10
2018-06-14T08:37:48.041Z,2.90
2018-06-14T08:40:15.054Z,3.10
2018-06-14T08:42:42.041Z,3.07
2018-06-14T08:45:09.040Z,3.60
2018-06-14T08:47:36.050Z,3.10
2018-06-14T08:50:03.060Z,3.17
2018-06-14T08:52:30.066Z,3.00
2018-06-14T08:54:57.061Z,2.70
2018-06-14T08:57:24.264Z,2.73
2018-06-14T08:59:51.280Z,2.50
2018-06-14T09:02:18.324Z,2.83
2018-06-14T09:04:45.333Z,2.83
2018-06-14T09:07:12.325Z,2.70
2018-06-14T09:09:39.321Z,2.70
2018-06-14T09:12:06.317Z,3.13
2018-06-14T09:14:33.342Z,3.20
2018-06-14T09:17:00.349Z,3.10
2018-06-14T09:19:27.356Z,3.30
2018-06-14T09:21:54.368Z,3.43
2018-06-14T09:24:21.416Z,2.67
2018-06-14T09:26:48.404Z,3.03
2018-06-14T09:29:15.396Z,3.20
2018-06-14T09:31:42.397Z,3.03
2018-06-14T09:34:10.661Z,3.20
2018-06-14T09:36:37.677Z,3.67
2018-06-14T09:39:06.529Z,3.50
2018-06-14T09:41:33.541Z,2.70
2018-06-14T09:44:00.532Z,3.10
2018-06-14T09:46:27.578Z,2.90
2018-06-14T09:49:00.385Z,2.83
2018-06-14T09:51:27.384Z,3.00
2018-06-14T09:53:54.386Z,3.10
2018-06-14T09:56:22.120Z,3.10
2018-06-14T09:58:49.133Z,3.00
2018-06-14T10:01:16.255Z,3.10
2018-06-14T10:03:44.226Z,2.90
2018-06-14T10:06:11.247Z,3.07
2018-06-14T10:08:38.304Z,2.90
2018-06-14T10:11:05.823Z,3.00
2018-06-14T10:13:32.849Z,3.53
2018-06-14T10:15:59.892Z,3.03
2018-06-14T10:18:26.864Z,2.70
2018-06-14T10:20:53.877Z,2.97
2018-06-14T10:23:20.899Z,3.43
2018-06-14T10:25:47.880Z,3.40
2018-06-14T10:28:15.944Z,3.10
2018-06-14T10:30:42.937Z,2.60
2018-06-14T10:33:10.577Z,2.30
2018-06-14T10:35:37.581Z,2.57
2018-06-14T10:38:09.648Z,2.83
2018-06-14T10:40:36.643Z,2.50
2018-06-14T10:43:05.033Z,2.47
2018-06-14T10:45:32.785Z,3.70
2018-06-14T10:48:00.525Z,3.97
2018-06-14T10:50:27.520Z,3.93
2018-06-14T10:52:54.565Z,3.17
2018-06-14T10:55:21.649Z,3.20
2018-06-14T10:57:48.714Z,3.13
2018-06-14T11:00:15.761Z,2.90
2018-06-14T11:02:42.778Z,2.73
2018-06-14T11:05:10.286Z,2.43
2018-06-14T11:07:37.337Z,2.63
2018-06-14T11:10:04.353Z,2.50
2018-06-14T11:12:31.356Z,2.57
2018-06-14T11:14:58.390Z,2.63
2018-06-14T11:17:25.438Z,2.90
2018-06-14T11:19:52.416Z,3.40
2018-06-14T11:22:20.980Z,4.07
2018-06-14T11:24:47.989Z,2.97
2018-06-14T11:27:15.553Z,3.27
2018-06-14T11:29:42.553Z,4.17
2018-06-14T11:32:10.320Z,3.53
2018-06-14T11:34:37.373Z,3.70
2018-06-14T11:37:04.425Z,4.40
2018-06-14T11:39:31.430Z,3.50
2018-06-14T11:41:58.776Z,3.77
2018-06-14T11:44:25.781Z,2.97
2018-06-14T11:46:52.797Z,3.03
2018-06-14T11:49:19.785Z,3.23
2018-06-14T11:51:46.821Z,3.90
2018-06-14T11:54:13.869Z,3.97
2018-06-14T11:56:40.829Z,3.80
2018-06-14T11:59:07.861Z,3.57
2018-06-14T12:01:34.889Z,3.30
2018-06-14T12:04:01.894Z,3.00
2018-06-14T12:06:28.922Z,3.73
2018-06-14T12:08:55.933Z,2.90
2018-06-14T12:11:22.925Z,3.20
2018-06-14T12:13:49.956Z,3.13
2018-06-14T12:16:16.944Z,3.70
2018-06-14T12:18:43.941Z,3.17
2018-06-14T12:21:10.961Z,2.70
2018-06-14T12:23:37.958Z,2.60
2018-06-14T12:26:05.120Z,3.60
2018-06-14T12:28:32.145Z,3.17
2018-06-14T12:30:59.160Z,3.30
2018-06-14T12:33:26.205Z,3.10
2018-06-14T12:35:53.214Z,2.63
2018-06-14T12:38:20.228Z,2.47
2018-06-14T12:40:47.241Z,2.47
2018-06-14T12:43:14.257Z,3.33
2018-06-14T12:45:41.261Z,3.37
2018-06-14T12:48:08.265Z,2.90
2018-06-14T12:50:35.265Z,2.53
2018-06-14T12:53:02.317Z,2.67
2018-06-14T12:55:29.321Z,2.27
2018-06-14T12:57:56.341Z,2.20
2018-06-14T13:00:23.364Z,2.80
2018-06-14T13:02:50.384Z,3.20
2018-06-14T13:05:17.396Z,3.20
2018-06-14T13:07:44.406Z,2.70
2018-06-14T13:10:11.429Z,2.80
2018-06-14T13:12:38.445Z,2.40
2018-06-14T13:15:05.529Z,2.27
2018-06-14T13:17:32.519Z,2.30
2018-06-14T13:19:59.513Z,2.50
2018-06-14T13:22:26.586Z,2.43
2018-06-14T13:24:53.612Z,2.40
2018-06-14T13:27:20.628Z,2.87
2018-06-14T13:29:47.621Z,3.00
2018-06-14T13:32:14.632Z,3.10
2018-06-14T13:34:41.685Z,2.47
2018-06-14T13:37:08.728Z,2.60
2018-06-14T13:39:35.730Z,2.40
2018-06-14T13:42:03.224Z,2.70
2018-06-14T13:44:30.197Z,2.43
2018-06-14T13:46:57.229Z,4.37
2018-06-14T13:49:24.212Z,3.53
2018-06-14T13:51:51.214Z,2.90
2018-06-14T13:54:18.229Z,3.33
2018-06-14T13:56:45.305Z,3.43
2018-06-14T13:59:12.311Z,3.60
2018-06-14T14:01:39.311Z,4.30
2018-06-14T14:04:06.305Z,4.17
2018-06-14T14:06:33.379Z,3.20
2018-06-14T14:09:00.309Z,3.67
2018-06-14T14:11:27.343Z,3.43
2018-06-14T14:13:54.497Z,4.30
2018-06-14T14:16:21.505Z,4.13
2018-06-14T14:18:48.588Z,3.97
2018-06-14T14:21:15.593Z,3.73
2018-06-14T14:23:42.668Z,3.17
2018-06-14T14:26:10.129Z,3.30
2018-06-14T14:28:37.245Z,3.20
2018-06-14T14:31:04.346Z,3.37
2018-06-14T14:33:31.629Z,3.40
2018-06-14T14:35:58.666Z,3.17
2018-06-14T14:38:25.689Z,4.30
2018-06-14T14:40:52.690Z,4.20
2018-06-14T14:43:19.682Z,3.30
2018-06-14T14:45:46.708Z,3.97
2018-06-14T14:48:13.671Z,4.10
2018-06-14T14:50:40.664Z,3.73
2018-06-14T14:53:07.194Z,4.30
2018-06-14T14:55:37.143Z,3.63
2018-06-14T14:58:06.462Z,4.00
2018-06-14T15:00:45.439Z,3.40
2018-06-14T15:03:22.175Z,3.60
2018-06-14T15:06:05.309Z,3.80
2018-06-14T15:08:47.697Z,3.33
2018-06-14T15:11:34.012Z,4.53
2018-06-14T15:14:23.231Z,3.70
2018-06-14T15:17:11.253Z,3.30
2018-06-14T15:20:00.239Z,4.47
2018-06-14T15:22:45.294Z,3.73
2018-06-14T15:25:32.672Z,4.70
2018-06-14T15:28:10.828Z,3.90
2018-06-14T15:31:04.469Z,3.90
2018-06-14T15:33:51.436Z,3.60
2018-06-14T15:36:26.664Z,3.60
2018-06-14T15:39:35.055Z,3.63
2018-06-14T15:42:29.249Z,3.43
2018-06-14T15:45:16.998Z,3.20
2018-06-14T15:48:21.933Z,3.30
2018-06-14T15:51:14.532Z,3.80
2018-06-14T15:54:10.654Z,3.37
2018-06-14T15:57:02.771Z,3.93
2018-06-14T15:59:53.479Z,4.30
2018-06-14T16:02:31.138Z,4.30
2018-06-14T16:05:19.924Z,3.40
2018-06-14T16:08:00.714Z,4.03
2018-06-14T16:10:33.741Z,4.00
2018-06-14T16:13:00.745Z,3.30
2018-06-14T16:15:28.680Z,3.70
2018-06-14T16:17:56.424Z,3.70
2018-06-14T16:20:47.036Z,3.43
2018-06-14T16:26:36.245Z,3.47
2018-06-14T16:29:25.020Z,3.87
2018-06-14T16:32:21.070Z,3.67
2018-06-14T16:35:12.966Z,3.57
2018-06-14T16:38:04.670Z,3.97
2018-06-14T16:40:31.656Z,3.57
2018-06-14T16:43:28.972Z,3.60
2018-06-14T16:46:17.202Z,3.37
2018-06-14T16:48:54.040Z,3.20
2018-06-14T16:51:47.915Z,3.53
2018-06-14T16:54:33.348Z,3.87
2018-06-14T16:57:21.011Z,4.20
2018-06-14T17:00:16.067Z,3.30
2018-06-14T17:03:09.559Z,3.20
2018-06-14T17:05:56.583Z,3.43
2018-06-14T17:08:26.710Z,3.50
2018-06-14T17:14:20.475Z,3.53
2018-06-14T17:17:06.748Z,3.77
2018-06-14T17:20:05.058Z,4.13
2018-06-14T17:22:46.181Z,3.30
2018-06-14T17:25:35.168Z,2.97
2018-06-14T17:28:19.947Z,3.90
2018-06-14T17:31:19.074Z,4.50
2018-06-14T17:34:03.044Z,3.70
2018-06-14T17:36:45.097Z,3.37
2018-06-14T17:39:36.818Z,4.00
2018-06-14T17:42:23.907Z,3.67
2018-06-14T17:45:15.066Z,3.80
2018-06-14T17:54:02.926Z,3.83
2018-06-14T17:56:50.539Z,3.70
2018-06-14T17:59:41.641Z,4.10
2018-06-14T18:02:47.267Z,3.50
2018-06-14T18:05:23.524Z,3.40
2018-06-14T18:07:50.564Z,3.50
2018-06-14T18:10:39.281Z,3.60
2018-06-14T18:13:30.482Z,3.87
2018-06-14T18:16:14.696Z,4.00
2018-06-14T18:18:41.681Z,3.67
2018-06-14T18:21:08.708Z,3.40
2018-06-14T18:24:04.195Z,3.00
2018-06-14T18:27:03.317Z,3.47
2018-06-14T18:29:53.128Z,4.60
2018-06-14T18:32:20.109Z,4.10
2018-06-14T18:35:13.679Z,3.83
2018-06-14T18:37:58.845Z,3.30
2018-06-14T18:40:37.033Z,3.37
2018-06-14T18:43:22.924Z,3.50
2018-06-14T18:46:11.602Z,4.10
2018-06-14T18:48:53.085Z,3.57
2018-06-14T18:51:20.094Z,3.47
2018-06-14T18:53:47.091Z,3.97
2018-06-14T18:56:16.174Z,5.10
2018-06-14T18:58:43.197Z,6.17
2018-06-14T19:01:10.239Z,5.60
2018-06-14T19:03:56.144Z,4.73
2018-06-14T19:06:53.874Z,4.70
2018-06-14T19:09:20.874Z,4.30
2018-06-14T19:11:47.855Z,4.13
2018-06-14T19:14:38.396Z,4.40
2018-06-14T19:17:28.029Z,4.40
2018-06-14T19:20:19.626Z,4.87
2018-06-14T19:23:09.328Z,5.17
2018-06-14T19:26:07.048Z,4.83
2018-06-14T19:28:51.329Z,4.33
2018-06-14T19:31:42.245Z,4.60
2018-06-14T19:34:31.224Z,4.60
2018-06-14T19:37:25.558Z,3.93
2018-06-14T19:40:17.736Z,4.10
2018-06-14T19:43:12.554Z,4.90
2018-06-14T19:45:58.430Z,4.10
2018-06-14T19:48:41.539Z,3.60
2018-06-14T19:51:27.309Z,4.30
2018-06-14T19:53:58.870Z,3.47
2018-06-14T19:56:44.327Z,4.17
2018-06-14T19:59:30.005Z,3.50
2018-06-14T20:02:18.167Z,4.07
2018-06-14T20:05:06.767Z,3.83
2018-06-14T20:08:02.964Z,3.83
2018-06-14T20:10:34.127Z,3.67
2018-06-14T20:13:16.219Z,3.60
2018-06-14T20:15:54.077Z,3.80
2018-06-14T20:18:44.832Z,3.67
2018-06-14T20:21:24.245Z,3.27
2018-06-14T20:24:09.619Z,3.90
2018-06-14T20:26:45.781Z,4.10
2018-06-14T20:32:15.530Z,3.90
2018-06-14T20:34:59.459Z,3.83
2018-06-14T20:37:38.103Z,3.73
2018-06-14T20:40:27.456Z,4.23
2018-06-14T20:43:12.494Z,4.13
2018-06-14T20:46:02.420Z,4.00
2018-06-14T20:48:47.699Z,4.27
2018-06-14T20:51:31.731Z,4.07
2018-06-14T20:54:07.877Z,4.00
2018-06-14T20:57:00.435Z,3.70
2018-06-14T20:59:34.414Z,3.93
2018-06-14T21:02:01.436Z,3.93
2018-06-14T21:04:28.425Z,3.90
2018-06-14T21:06:55.429Z,3.70
2018-06-14T21:09:22.425Z,4.50
2018-06-14T21:11:49.431Z,4.20
2018-06-14T21:14:16.429Z,4.20
2018-06-14T21:16:43.434Z,4.40
2018-06-14T21:19:10.430Z,3.83
2018-06-14T21:21:37.434Z,4.23
2018-06-14T21:24:04.462Z,4.87
2018-06-14T21:26:31.473Z,3.73
2018-06-14T21:28:58.478Z,4.47
2018-06-14T21:31:25.542Z,4.50
2018-06-14T21:33:52.525Z,4.47
2018-06-14T21:36:19.562Z,4.10
2018-06-14T21:38:46.640Z,4.87
2018-06-14T21:41:13.664Z,4.70
2018-06-14T21:43:40.674Z,4.87
2018-06-14T21:46:07.674Z,4.83
2018-06-14T21:48:34.667Z,5.30
2018-06-14T21:51:01.716Z,4.80
2018-06-14T21:53:28.797Z,4.53
2018-06-14T21:55:55.814Z,5.13
2018-06-14T21:58:22.828Z,5.67
2018-06-14T22:00:49.829Z,5.00
2018-06-14T22:03:22.433Z,4.70
2018-06-14T22:05:49.429Z,5.10
2018-06-14T22:08:16.449Z,5.03
2018-06-14T22:10:43.453Z,5.63
2018-06-14T22:13:10.453Z,5.53
2018-06-14T22:15:37.477Z,6.13
2018-06-14T22:18:04.501Z,4.93
2018-06-14T22:20:31.510Z,5.63
2018-06-14T22:22:58.513Z,6.23
2018-06-14T22:25:25.513Z,5.80
2018-06-14T22:27:52.510Z,6.00
2018-06-14T22:30:19.509Z,6.00
2018-06-14T22:32:56.777Z,5.37
2018-06-14T22:35:27.146Z,4.90
2018-06-14T22:37:54.645Z,6.20
2018-06-14T22:40:21.650Z,5.03
2018-06-14T22:42:48.662Z,5.50
2018-06-14T22:45:16.590Z,5.20
2018-06-14T22:47:43.654Z,5.50
2018-06-14T22:50:10.674Z,5.67
2018-06-14T22:52:50.360Z,5.63
2018-06-14T22:55:17.845Z,6.20
2018-06-14T22:57:45.264Z,6.40
2018-06-14T23:00:20.062Z,5.20
2018-06-14T23:02:47.037Z,5.20
2018-06-14T23:05:14.026Z,5.43
2018-06-14T23:07:41.019Z,5.23
2018-06-14T23:10:24.791Z,5.67
2018-06-14T23:12:51.841Z,5.93
2018-06-14T23:15:19.193Z,6.07
2018-06-14T23:17:46.955Z,5.20
2018-06-14T23:20:15.218Z,6.27
2018-06-14T23:22:42.473Z,5.50
2018-06-14T23:25:09.454Z,5.97
2018-06-14T23:27:36.442Z,5.50
2018-06-14T23:30:03.572Z,5.83
2018-06-14T23:32:30.550Z,5.97
2018-06-14T23:34:57.711Z,5.70
2018-06-14T23:37:25.170Z,5.77
2018-06-14T23:39:52.145Z,6.10
2018-06-14T23:42:19.140Z,6.13
2018-06-14T23:44:46.113Z,5.30
2018-06-14T23:47:13.101Z,6.20
2018-06-14T23:49:40.096Z,5.97
2018-06-14T23:52:07.110Z,5.17
2018-06-14T23:54:34.109Z,5.90
2018-06-14T23:57:01.347Z,6.20
2018-06-14T23:59:28.390Z,5.73
